sensor_id;sensor_type;location;lat;lon;timestamp;pressure;altitude;pressure_sealevel;temperature;humidity
74163;BME280;62515;52.758;5.076;2022-11-20T00:01:39;101517.47;;;-1.11;99.69
74163;BME280;62515;52.758;5.076;2022-11-20T00:04:06;101524.41;;;-1.10;100.00
74163;BME280;62515;52.758;5.076;2022-11-20T00:06:32;101508.72;;;-1.09;99.61
74163;BME280;62515;52.758;5.076;2022-11-20T00:09:00;101515.59;;;-1.03;98.66
74163;BME280;62515;52.758;5.076;2022-11-20T00:11:30;101522.59;;;-1.05;98.34
74163;BME280;62515;52.758;5.076;2022-11-20T00:14:00;101523.56;;;-1.11;98.45
74163;BME280;62515;52.758;5.076;2022-11-20T00:16:29;101523.53;;;-1.08;98.44
74163;BME280;62515;52.758;5.076;2022-11-20T00:18:56;101531.31;;;-1.06;98.56
74163;BME280;62515;52.758;5.076;2022-11-20T00:21:24;101526.91;;;-1.02;97.86
74163;BME280;62515;52.758;5.076;2022-11-20T00:23:53;101526.97;;;-1.07;97.55
74163;BME280;62515;52.758;5.076;2022-11-20T00:26:22;101527.88;;;-1.10;99.13
74163;BME280;62515;52.758;5.076;2022-11-20T00:28:50;101519.91;;;-1.00;97.93
74163;BME280;62515;52.758;5.076;2022-11-20T00:31:19;101520.97;;;-1.12;98.70
74163;BME280;62515;52.758;5.076;2022-11-20T00:33:46;101527.22;;;-1.24;99.85
74163;BME280;62515;52.758;5.076;2022-11-20T00:36:15;101521.41;;;-1.47;100.00
74163;BME280;62515;52.758;5.076;2022-11-20T00:38:42;101507.66;;;-1.66;100.00
74163;BME280;62515;52.758;5.076;2022-11-20T00:41:11;101529.56;;;-1.77;100.00
74163;BME280;62515;52.758;5.076;2022-11-20T00:43:38;101525.31;;;-1.86;100.00
74163;BME280;62515;52.758;5.076;2022-11-20T00:46:06;101527.09;;;-1.94;100.00
74163;BME280;62515;52.758;5.076;2022-11-20T00:48:35;101517.59;;;-1.99;100.00
74163;BME280;62515;52.758;5.076;2022-11-20T00:51:02;101528.03;;;-2.01;100.00
74163;BME280;62515;52.758;5.076;2022-11-20T00:53:28;101516.81;;;-2.06;100.00
74163;BME280;62515;52.758;5.076;2022-11-20T00:55:56;101522.91;;;-2.10;100.00
74163;BME280;62515;52.758;5.076;2022-11-20T00:58:25;101524.69;;;-2.12;100.00
74163;BME280;62515;52.758;5.076;2022-11-20T01:00:52;101512.59;;;-2.24;100.00
74163;BME280;62515;52.758;5.076;2022-11-20T01:03:19;101517.00;;;-2.30;100.00
74163;BME280;62515;52.758;5.076;2022-11-20T01:05:53;101518.84;;;-2.43;100.00
74163;BME280;62515;52.758;5.076;2022-11-20T01:08:20;101515.41;;;-2.49;100.00
74163;BME280;62515;52.758;5.076;2022-11-20T01:10:47;101511.91;;;-2.42;100.00
74163;BME280;62515;52.758;5.076;2022-11-20T01:13:14;101510.09;;;-2.34;100.00
74163;BME280;62515;52.758;5.076;2022-11-20T01:16:08;101510.13;;;-2.39;100.00
74163;BME280;62515;52.758;5.076;2022-11-20T01:18:36;101509.28;;;-2.44;100.00
74163;BME280;62515;52.758;5.076;2022-11-20T01:21:08;101503.28;;;-2.50;100.00
74163;BME280;62515;52.758;5.076;2022-11-20T01:23:38;101505.09;;;-2.61;100.00
74163;BME280;62515;52.758;5.076;2022-11-20T01:26:07;101503.41;;;-2.69;100.00
74163;BME280;62515;52.758;5.076;2022-11-20T01:28:34;101497.38;;;-2.75;100.00
74163;BME280;62515;52.758;5.076;2022-11-20T01:31:02;101500.84;;;-2.76;100.00
74163;BME280;62515;52.758;5.076;2022-11-20T01:33:38;101493.03;;;-2.76;100.00
74163;BME280;62515;52.758;5.076;2022-11-20T01:36:07;101490.28;;;-2.56;100.00
74163;BME280;62515;52.758;5.076;2022-11-20T01:38:35;101489.53;;;-2.71;100.00
74163;BME280;62515;52.758;5.076;2022-11-20T01:41:12;101491.25;;;-2.70;100.00
74163;BME280;62515;52.758;5.076;2022-11-20T01:43:57;101496.47;;;-2.68;100.00
74163;BME280;62515;52.758;5.076;2022-11-20T01:46:24;101495.63;;;-2.70;100.00
74163;BME280;62515;52.758;5.076;2022-11-20T01:48:54;101483.47;;;-2.76;100.00
74163;BME280;62515;52.758;5.076;2022-11-20T01:51:28;101474.81;;;-2.75;100.00
74163;BME280;62515;52.758;5.076;2022-11-20T01:53:59;101482.66;;;-2.78;100.00
74163;BME280;62515;52.758;5.076;2022-11-20T01:56:28;101477.47;;;-2.84;100.00
74163;BME280;62515;52.758;5.076;2022-11-20T01:58:58;101467.03;;;-2.81;100.00
74163;BME280;62515;52.758;5.076;2022-11-20T02:01:27;101470.50;;;-2.82;100.00
74163;BME280;62515;52.758;5.076;2022-11-20T02:03:54;101477.47;;;-2.81;100.00
74163;BME280;62515;52.758;5.076;2022-11-20T02:06:25;101468.78;;;-2.80;100.00
74163;BME280;62515;52.758;5.076;2022-11-20T02:08:54;101456.59;;;-2.78;100.00
74163;BME280;62515;52.758;5.076;2022-11-20T02:11:21;101456.59;;;-2.78;100.00
74163;BME280;62515;52.758;5.076;2022-11-20T02:13:48;101448.75;;;-2.76;100.00
74163;BME280;62515;52.758;5.076;2022-11-20T02:16:20;101447.03;;;-2.77;100.00
74163;BME280;62515;52.758;5.076;2022-11-20T02:18:48;101447.00;;;-2.76;100.00
74163;BME280;62515;52.758;5.076;2022-11-20T02:21:27;101447.81;;;-2.66;100.00
74163;BME280;62515;52.758;5.076;2022-11-20T02:24:04;101447.88;;;-2.71;100.00
74163;BME280;62515;52.758;5.076;2022-11-20T02:26:35;101442.72;;;-2.83;100.00
74163;BME280;62515;52.758;5.076;2022-11-20T02:29:04;101441.00;;;-2.82;100.00
74163;BME280;62515;52.758;5.076;2022-11-20T02:31:36;101437.56;;;-2.89;100.00
74163;BME280;62515;52.758;5.076;2022-11-20T02:34:03;101453.16;;;-2.80;100.00
74163;BME280;62515;52.758;5.076;2022-11-20T02:36:32;101447.06;;;-2.82;100.00
74163;BME280;62515;52.758;5.076;2022-11-20T02:38:59;101447.09;;;-2.83;100.00
74163;BME280;62515;52.758;5.076;2022-11-20T02:41:32;101444.47;;;-2.82;100.00
74163;BME280;62515;52.758;5.076;2022-11-20T02:44:00;101443.63;;;-2.84;100.00
74163;BME280;62515;52.758;5.076;2022-11-20T02:46:27;101437.53;;;-2.86;100.00
74163;BME280;62515;52.758;5.076;2022-11-20T02:48:54;101428.88;;;-2.88;100.00
74163;BME280;62515;52.758;5.076;2022-11-20T02:51:21;101410.66;;;-2.89;100.00
74163;BME280;62515;52.758;5.076;2022-11-20T02:53:48;101421.00;;;-2.77;100.00
74163;BME280;62515;52.758;5.076;2022-11-20T02:56:15;101426.16;;;-2.73;100.00
74163;BME280;62515;52.758;5.076;2022-11-20T02:58:44;101429.69;;;-2.77;100.00
74163;BME280;62515;52.758;5.076;2022-11-20T03:01:11;101425.31;;;-2.76;100.00
74163;BME280;62515;52.758;5.076;2022-11-20T03:03:38;101421.81;;;-2.72;100.00
74163;BME280;62515;52.758;5.076;2022-11-20T03:06:05;101420.06;;;-2.67;100.00
74163;BME280;62515;52.758;5.076;2022-11-20T03:08:32;101421.84;;;-2.75;100.00
74163;BME280;62515;52.758;5.076;2022-11-20T03:11:02;101416.69;;;-2.80;100.00
74163;BME280;62515;52.758;5.076;2022-11-20T03:13:29;101413.25;;;-2.88;100.00
74163;BME280;62515;52.758;5.076;2022-11-20T03:15:57;101415.00;;;-2.87;100.00
74163;BME280;62515;52.758;5.076;2022-11-20T03:18:27;101408.03;;;-2.85;100.00
74163;BME280;62515;52.758;5.076;2022-11-20T03:20:57;101402.03;;;-2.93;100.00
74163;BME280;62515;52.758;5.076;2022-11-20T03:23:24;101414.91;;;-2.78;100.00
74163;BME280;62515;52.758;5.076;2022-11-20T03:25:51;101414.16;;;-2.90;100.00
74163;BME280;62515;52.758;5.076;2022-11-20T03:28:18;101410.78;;;-3.03;100.00
74163;BME280;62515;52.758;5.076;2022-11-20T03:30:45;101417.78;;;-3.11;100.00
74163;BME280;62515;52.758;5.076;2022-11-20T03:33:13;101418.66;;;-3.15;100.00
74163;BME280;62515;52.758;5.076;2022-11-20T03:35:40;101404.81;;;-3.20;100.00
74163;BME280;62515;52.758;5.076;2022-11-20T03:38:07;101388.34;;;-3.19;100.00
74163;BME280;62515;52.758;5.076;2022-11-20T03:40:34;101379.66;;;-3.20;100.00
74163;BME280;62515;52.758;5.076;2022-11-20T03:43:01;101384.00;;;-3.20;100.00
74163;BME280;62515;52.758;5.076;2022-11-20T03:45:28;101382.25;;;-3.20;100.00
74163;BME280;62515;52.758;5.076;2022-11-20T03:47:55;101372.72;;;-3.19;100.00
74163;BME280;62515;52.758;5.076;2022-11-20T03:50:23;101376.13;;;-3.11;100.00
74163;BME280;62515;52.758;5.076;2022-11-20T03:52:50;101371.81;;;-3.15;100.00
74163;BME280;62515;52.758;5.076;2022-11-20T03:55:16;101371.81;;;-3.15;100.00
74163;BME280;62515;52.758;5.076;2022-11-20T03:57:43;101374.34;;;-3.04;100.00
74163;BME280;62515;52.758;5.076;2022-11-20T04:00:11;101369.97;;;-2.99;100.00
74163;BME280;62515;52.758;5.076;2022-11-20T04:02:38;101361.25;;;-2.97;100.00
74163;BME280;62515;52.758;5.076;2022-11-20T04:05:06;101360.41;;;-3.00;100.00
74163;BME280;62515;52.758;5.076;2022-11-20T04:07:34;101357.00;;;-3.07;100.00
74163;BME280;62515;52.758;5.076;2022-11-20T04:10:02;101363.06;;;-3.08;100.00
74163;BME280;62515;52.758;5.076;2022-11-20T04:12:31;101357.06;;;-3.14;100.00
74163;BME280;62515;52.758;5.076;2022-11-20T04:14:58;101361.38;;;-3.10;100.00
74163;BME280;62515;52.758;5.076;2022-11-20T04:17:25;101355.22;;;-3.02;100.00
74163;BME280;62515;52.758;5.076;2022-11-20T04:19:52;101354.31;;;-2.98;100.00
74163;BME280;62515;52.758;5.076;2022-11-20T04:22:19;101358.66;;;-2.98;100.00
74163;BME280;62515;52.758;5.076;2022-11-20T04:24:47;101351.81;;;-3.10;100.00
74163;BME280;62515;52.758;5.076;2022-11-20T04:27:14;101343.22;;;-3.21;100.00
74163;BME280;62515;52.758;5.076;2022-11-20T04:29:41;101350.97;;;-3.15;100.00
74163;BME280;62515;52.758;5.076;2022-11-20T04:32:08;101345.84;;;-3.23;100.00
74163;BME280;62515;52.758;5.076;2022-11-20T04:34:35;101334.56;;;-3.23;100.00
74163;BME280;62515;52.758;5.076;2022-11-20T04:37:01;101338.91;;;-3.22;100.00
74163;BME280;62515;52.758;5.076;2022-11-20T04:39:28;101351.84;;;-3.14;100.00
74163;BME280;62515;52.758;5.076;2022-11-20T04:41:56;101347.53;;;-3.17;100.00
74163;BME280;62515;52.758;5.076;2022-11-20T04:44:41;101347.56;;;-3.22;100.00
74163;BME280;62515;52.758;5.076;2022-11-20T04:47:08;101344.13;;;-3.27;100.00
74163;BME280;62515;52.758;5.076;2022-11-20T04:49:35;101347.69;;;-3.35;100.00
74163;BME280;62515;52.758;5.076;2022-11-20T04:52:02;101343.44;;;-3.48;100.00
74163;BME280;62515;52.758;5.076;2022-11-20T04:54:29;101351.25;;;-3.53;100.00
74163;BME280;62515;52.758;5.076;2022-11-20T04:56:57;101349.56;;;-3.58;100.00
74163;BME280;62515;52.758;5.076;2022-11-20T04:59:24;101350.38;;;-3.53;100.00
74163;BME280;62515;52.758;5.076;2022-11-20T05:01:50;101358.19;;;-3.53;100.00
74163;BME280;62515;52.758;5.076;2022-11-20T05:04:17;101366.81;;;-3.45;100.00
74163;BME280;62515;52.758;5.076;2022-11-20T05:06:44;101366.88;;;-3.51;100.00
74163;BME280;62515;52.758;5.076;2022-11-20T05:09:12;101357.31;;;-3.54;100.00
74163;BME280;62515;52.758;5.076;2022-11-20T05:11:39;101353.00;;;-3.55;100.00
74163;BME280;62515;52.758;5.076;2022-11-20T05:14:07;101342.50;;;-3.44;100.00
74163;BME280;62515;52.758;5.076;2022-11-20T05:16:34;101330.38;;;-3.42;100.00
74163;BME280;62515;52.758;5.076;2022-11-20T05:19:02;101328.66;;;-3.48;100.00
74163;BME280;62515;52.758;5.076;2022-11-20T05:21:30;101329.56;;;-3.52;100.00
74163;BME280;62515;52.758;5.076;2022-11-20T05:23:57;101319.16;;;-3.53;100.00
74163;BME280;62515;52.758;5.076;2022-11-20T05:26:23;101312.25;;;-3.57;100.00
74163;BME280;62515;52.758;5.076;2022-11-20T05:28:51;101311.41;;;-3.58;100.00
74163;BME280;62515;52.758;5.076;2022-11-20T05:31:21;101310.44;;;-3.48;100.00
74163;BME280;62515;52.758;5.076;2022-11-20T05:33:53;101311.28;;;-3.43;100.00
74163;BME280;62515;52.758;5.076;2022-11-20T05:36:21;101305.19;;;-3.36;100.00
74163;BME280;62515;52.758;5.076;2022-11-20T05:38:48;101313.84;;;-3.35;100.00
74163;BME280;62515;52.758;5.076;2022-11-20T05:41:18;101314.72;;;-3.36;100.00
74163;BME280;62515;52.758;5.076;2022-11-20T05:43:47;101313.03;;;-3.42;100.00
74163;BME280;62515;52.758;5.076;2022-11-20T05:46:16;101312.16;;;-3.44;100.00
74163;BME280;62515;52.758;5.076;2022-11-20T05:48:45;101303.47;;;-3.40;100.00
74163;BME280;62515;52.758;5.076;2022-11-20T05:51:15;101310.34;;;-3.34;100.00
74163;BME280;62515;52.758;5.076;2022-11-20T05:53:42;101312.09;;;-3.33;100.00
74163;BME280;62515;52.758;5.076;2022-11-20T05:56:15;101326.81;;;-3.29;100.00
74163;BME280;62515;52.758;5.076;2022-11-20T05:58:43;101321.59;;;-3.31;100.00
74163;BME280;62515;52.758;5.076;2022-11-20T06:01:12;101314.66;;;-3.30;100.00
74163;BME280;62515;52.758;5.076;2022-11-20T06:03:40;101306.88;;;-3.29;100.00
74163;BME280;62515;52.758;5.076;2022-11-20T06:06:10;101312.06;;;-3.29;100.00
74163;BME280;62515;52.758;5.076;2022-11-20T06:08:36;101322.44;;;-3.27;100.00
74163;BME280;62515;52.758;5.076;2022-11-20T06:11:04;101321.59;;;-3.26;100.00
74163;BME280;62515;52.758;5.076;2022-11-20T06:13:31;101318.94;;;-3.22;100.00
74163;BME280;62515;52.758;5.076;2022-11-20T06:16:01;101318.06;;;-3.19;100.00
74163;BME280;62515;52.758;5.076;2022-11-20T06:18:30;101316.31;;;-3.20;100.00
74163;BME280;62515;52.758;5.076;2022-11-20T06:21:02;101313.72;;;-3.22;100.00
74163;BME280;62515;52.758;5.076;2022-11-20T06:23:31;101307.66;;;-3.21;100.00
74163;BME280;62515;52.758;5.076;2022-11-20T06:26:02;101297.25;;;-3.19;100.00
74163;BME280;62515;52.758;5.076;2022-11-20T06:28:29;101307.56;;;-3.10;100.00
74163;BME280;62515;52.758;5.076;2022-11-20T06:30:56;101311.00;;;-3.08;100.00
74163;BME280;62515;52.758;5.076;2022-11-20T06:33:23;101299.69;;;-3.05;100.00
74163;BME280;62515;52.758;5.076;2022-11-20T06:35:50;101300.50;;;-2.99;100.00
74163;BME280;62515;52.758;5.076;2022-11-20T06:38:25;101303.91;;;-2.92;100.00
74163;BME280;62515;52.758;5.076;2022-11-20T06:40:53;101297.00;;;-2.93;100.00
74163;BME280;62515;52.758;5.076;2022-11-20T06:43:20;101300.47;;;-2.93;100.00
74163;BME280;62515;52.758;5.076;2022-11-20T06:45:51;101297.00;;;-2.95;100.00
74163;BME280;62515;52.758;5.076;2022-11-20T06:48:18;101300.50;;;-2.97;99.86
74163;BME280;62515;52.758;5.076;2022-11-20T06:50:45;101295.31;;;-2.99;99.72
74163;BME280;62515;52.758;5.076;2022-11-20T06:53:12;101296.06;;;-2.88;99.25
74163;BME280;62515;52.758;5.076;2022-11-20T06:55:41;101290.81;;;-2.80;98.75
74163;BME280;62515;52.758;5.076;2022-11-20T06:58:10;101285.53;;;-2.74;99.99
74163;BME280;62515;52.758;5.076;2022-11-20T07:00:37;101287.19;;;-2.67;99.21
74163;BME280;62515;52.758;5.076;2022-11-20T07:03:05;101281.84;;;-2.56;97.91
74163;BME280;62515;52.758;5.076;2022-11-20T07:05:32;101276.53;;;-2.44;97.21
74163;BME280;62515;52.758;5.076;2022-11-20T07:07:59;101273.84;;;-2.38;96.75
74163;BME280;62515;52.758;5.076;2022-11-20T07:10:26;101278.13;;;-2.34;96.30
74163;BME280;62515;52.758;5.076;2022-11-20T07:12:53;101277.28;;;-2.36;97.08
74163;BME280;62515;52.758;5.076;2022-11-20T07:15:23;101278.16;;;-2.37;97.28
74163;BME280;62515;52.758;5.076;2022-11-20T07:17:51;101294.66;;;-2.37;97.93
74163;BME280;62515;52.758;5.076;2022-11-20T07:20:18;101285.97;;;-2.37;98.07
74163;BME280;62515;52.758;5.076;2022-11-20T07:22:45;101275.41;;;-2.27;97.35
74163;BME280;62515;52.758;5.076;2022-11-20T07:25:12;101271.84;;;-2.20;98.01
74163;BME280;62515;52.758;5.076;2022-11-20T07:27:39;101265.66;;;-2.09;96.91
74163;BME280;62515;52.758;5.076;2022-11-20T07:30:06;101261.22;;;-2.03;96.33
74163;BME280;62515;52.758;5.076;2022-11-20T07:32:36;101267.28;;;-2.02;96.29
74163;BME280;62515;52.758;5.076;2022-11-20T07:35:03;101254.22;;;-2.01;97.05
74163;BME280;62515;52.758;5.076;2022-11-20T07:37:33;101252.50;;;-2.02;96.96
74163;BME280;62515;52.758;5.076;2022-11-20T07:40:00;101257.97;;;-2.20;97.83
74163;BME280;62515;52.758;5.076;2022-11-20T07:42:28;101254.66;;;-2.33;98.81
74163;BME280;62515;52.758;5.076;2022-11-20T07:44:55;101256.38;;;-2.33;99.39
74163;BME280;62515;52.758;5.076;2022-11-20T07:47:22;101265.03;;;-2.28;99.49
74163;BME280;62515;52.758;5.076;2022-11-20T07:49:50;101257.13;;;-2.24;100.00
74163;BME280;62515;52.758;5.076;2022-11-20T07:52:18;101257.88;;;-2.14;100.00
74163;BME280;62515;52.758;5.076;2022-11-20T07:54:44;101249.91;;;-2.02;100.00
74163;BME280;62515;52.758;5.076;2022-11-20T07:57:11;101254.13;;;-1.92;100.00
74163;BME280;62515;52.758;5.076;2022-11-20T07:59:38;101252.25;;;-1.82;100.00
74163;BME280;62515;52.758;5.076;2022-11-20T08:02:05;101252.97;;;-1.74;99.72
74163;BME280;62515;52.758;5.076;2022-11-20T08:04:32;101237.16;;;-1.64;100.00
74163;BME280;62515;52.758;5.076;2022-11-20T08:07:01;101220.56;;;-1.60;100.00
74163;BME280;62515;52.758;5.076;2022-11-20T08:09:28;101242.84;;;-1.39;100.00
74163;BME280;62515;52.758;5.076;2022-11-20T08:11:55;101244.34;;;-1.26;100.00
74163;BME280;62515;52.758;5.076;2022-11-20T08:14:40;101245.97;;;-1.17;100.00
74163;BME280;62515;52.758;5.076;2022-11-20T08:17:07;101241.50;;;-1.11;100.00
74163;BME280;62515;52.758;5.076;2022-11-20T08:19:34;101244.03;;;-1.06;100.00
74163;BME280;62515;52.758;5.076;2022-11-20T08:22:02;101244.78;;;-0.99;100.00
74163;BME280;62515;52.758;5.076;2022-11-20T08:24:29;101236.13;;;-1.01;100.00
74163;BME280;62515;52.758;5.076;2022-11-20T08:26:57;101248.19;;;-0.94;100.00
74163;BME280;62515;52.758;5.076;2022-11-20T08:29:24;101247.03;;;-0.80;100.00
74163;BME280;62515;52.758;5.076;2022-11-20T08:31:51;101245.28;;;-0.81;100.00
74163;BME280;62515;52.758;5.076;2022-11-20T08:34:18;101245.16;;;-0.75;100.00
74163;BME280;62515;52.758;5.076;2022-11-20T08:36:45;101235.56;;;-0.74;100.00
74163;BME280;62515;52.758;5.076;2022-11-20T08:39:14;101227.66;;;-0.70;100.00
74163;BME280;62515;52.758;5.076;2022-11-20T08:41:41;101218.97;;;-0.70;100.00
74163;BME280;62515;52.758;5.076;2022-11-20T08:44:08;101234.50;;;-0.63;100.00
74163;BME280;62515;52.758;5.076;2022-11-20T08:46:36;101234.31;;;-0.54;100.00
74163;BME280;62515;52.758;5.076;2022-11-20T08:49:04;101233.31;;;-0.46;100.00
74163;BME280;62515;52.758;5.076;2022-11-20T08:51:31;101216.66;;;-0.42;100.00
74163;BME280;62515;52.758;5.076;2022-11-20T08:53:59;101237.34;;;-0.32;100.00
74163;BME280;62515;52.758;5.076;2022-11-20T08:56:27;101225.97;;;-0.29;100.00
74163;BME280;62515;52.758;5.076;2022-11-20T08:58:54;101226.81;;;-0.27;100.00
74163;BME280;62515;52.758;5.076;2022-11-20T09:01:41;101219.69;;;-0.22;100.00
74163;BME280;62515;52.758;5.076;2022-11-20T09:04:08;101213.56;;;-0.20;100.00
74163;BME280;62515;52.758;5.076;2022-11-20T09:06:34;101216.19;;;-0.21;100.00
74163;BME280;62515;52.758;5.076;2022-11-20T09:09:01;101210.03;;;-0.17;100.00
74163;BME280;62515;52.758;5.076;2022-11-20T09:11:34;101208.19;;;-0.14;100.00
74163;BME280;62515;52.758;5.076;2022-11-20T09:14:01;101203.94;;;-0.19;100.00
74163;BME280;62515;52.758;5.076;2022-11-20T09:16:29;101211.19;;;-0.30;100.00
74163;BME280;62515;52.758;5.076;2022-11-20T09:18:56;101210.31;;;-0.32;100.00
74163;BME280;62515;52.758;5.076;2022-11-20T09:21:43;101199.78;;;-0.28;100.00
74163;BME280;62515;52.758;5.076;2022-11-20T09:24:10;101193.47;;;-0.19;100.00
74163;BME280;62515;52.758;5.076;2022-11-20T09:26:38;101189.97;;;-0.18;100.00
74163;BME280;62515;52.758;5.076;2022-11-20T09:29:05;101184.69;;;-0.15;100.00
74163;BME280;62515;52.758;5.076;2022-11-20T09:34:16;101182.69;;;-0.04;100.00
74163;BME280;62515;52.758;5.076;2022-11-20T09:36:43;101185.16;;;0.02;100.00
74163;BME280;62515;52.758;5.076;2022-11-20T09:39:10;101190.94;;;0.16;100.00
74163;BME280;62515;52.758;5.076;2022-11-20T09:42:04;101178.69;;;0.17;100.00
74163;BME280;62515;52.758;5.076;2022-11-20T09:44:48;101183.47;;;0.36;100.00
74163;BME280;62515;52.758;5.076;2022-11-20T09:47:23;101180.56;;;0.48;100.00
74163;BME280;62515;52.758;5.076;2022-11-20T09:50:02;101186.28;;;0.63;100.00
74163;BME280;62515;52.758;5.076;2022-11-20T09:52:41;101166.81;;;0.73;100.00
74163;BME280;62515;52.758;5.076;2022-11-20T09:55:13;101158.84;;;0.77;100.00
74163;BME280;62515;52.758;5.076;2022-11-20T09:57:45;101159.63;;;0.81;100.00
74163;BME280;62515;52.758;5.076;2022-11-20T10:00:14;101156.69;;;0.93;100.00
74163;BME280;62515;52.758;5.076;2022-11-20T10:02:44;101152.75;;;1.08;100.00
74163;BME280;62515;52.758;5.076;2022-11-20T10:05:18;101139.72;;;1.06;99.86
74163;BME280;62515;52.758;5.076;2022-11-20T10:07:50;101145.47;;;1.19;98.73
74163;BME280;62515;52.758;5.076;2022-11-20T10:10:33;101130.06;;;1.37;98.21
74163;BME280;62515;52.758;5.076;2022-11-20T10:13:20;101125.09;;;1.57;95.17
74163;BME280;62515;52.758;5.076;2022-11-20T10:15:58;101128.88;;;1.77;95.43
74163;BME280;62515;52.758;5.076;2022-11-20T10:18:40;101124.47;;;1.79;93.01
74163;BME280;62515;52.758;5.076;2022-11-20T10:21:16;101126.97;;;1.82;91.01
74163;BME280;62515;52.758;5.076;2022-11-20T10:23:57;101121.63;;;1.85;91.74
74163;BME280;62515;52.758;5.076;2022-11-20T10:26:29;101135.34;;;1.93;89.74
74163;BME280;62515;52.758;5.076;2022-11-20T10:29:09;101131.97;;;2.17;88.71
74163;BME280;62515;52.758;5.076;2022-11-20T10:31:38;101129.63;;;2.34;88.87
74163;BME280;62515;52.758;5.076;2022-11-20T10:34:14;101114.22;;;2.50;88.45
74163;BME280;62515;52.758;5.076;2022-11-20T10:36:54;101113.81;;;2.62;89.76
74163;BME280;62515;52.758;5.076;2022-11-20T10:39:28;101107.00;;;2.56;90.03
74163;BME280;62515;52.758;5.076;2022-11-20T10:41:59;101098.69;;;2.69;90.53
74163;BME280;62515;52.758;5.076;2022-11-20T10:44:29;101086.63;;;2.63;90.47
74163;BME280;62515;52.758;5.076;2022-11-20T10:47:22;101079.19;;;2.74;91.91
74163;BME280;62515;52.758;5.076;2022-11-20T10:49:52;101085.91;;;2.83;91.82
74163;BME280;62515;52.758;5.076;2022-11-20T10:52:27;101068.25;;;2.86;93.17
74163;BME280;62515;52.758;5.076;2022-11-20T10:54:59;101063.41;;;2.99;92.48
74163;BME280;62515;52.758;5.076;2022-11-20T10:57:41;101070.13;;;3.06;90.77
74163;BME280;62515;52.758;5.076;2022-11-20T11:00:15;101065.28;;;2.72;90.05
74163;BME280;62515;52.758;5.076;2022-11-20T11:02:47;101065.88;;;2.55;88.36
74163;BME280;62515;52.758;5.076;2022-11-20T11:05:33;101064.44;;;2.47;88.73
74163;BME280;62515;52.758;5.076;2022-11-20T11:08:02;101055.91;;;2.40;90.65
74163;BME280;62515;52.758;5.076;2022-11-20T11:10:36;101048.13;;;2.37;91.99
74163;BME280;62515;52.758;5.076;2022-11-20T11:13:21;101043.19;;;2.28;92.20
74163;BME280;62515;52.758;5.076;2022-11-20T11:15:50;101055.38;;;2.31;92.75
74163;BME280;62515;52.758;5.076;2022-11-20T11:18:25;101055.28;;;2.32;93.60
74163;BME280;62515;52.758;5.076;2022-11-20T11:20:53;101047.56;;;2.28;95.53
74163;BME280;62515;52.758;5.076;2022-11-20T11:23:31;101048.28;;;2.33;96.12
74163;BME280;62515;52.758;5.076;2022-11-20T11:26:00;101047.41;;;2.32;96.67
74163;BME280;62515;52.758;5.076;2022-11-20T11:28:35;101043.38;;;2.22;97.44
74163;BME280;62515;52.758;5.076;2022-11-20T11:31:08;101039.75;;;2.26;98.47
74163;BME280;62515;52.758;5.076;2022-11-20T11:33:35;101043.28;;;2.25;99.86
74163;BME280;62515;52.758;5.076;2022-11-20T11:36:04;101029.34;;;2.23;99.49
74163;BME280;62515;52.758;5.076;2022-11-20T11:38:43;101017.09;;;2.24;100.00
74163;BME280;62515;52.758;5.076;2022-11-20T11:41:15;101015.41;;;2.21;99.75
74163;BME280;62515;52.758;5.076;2022-11-20T11:43:51;101005.66;;;2.25;99.98
74163;BME280;62515;52.758;5.076;2022-11-20T11:46:40;100993.50;;;2.22;99.52
74163;BME280;62515;52.758;5.076;2022-11-20T11:49:17;100994.22;;;2.27;100.00
74163;BME280;62515;52.758;5.076;2022-11-20T11:51:58;100991.63;;;2.26;100.00
74163;BME280;62515;52.758;5.076;2022-11-20T11:54:30;100990.84;;;2.24;100.00
74163;BME280;62515;52.758;5.076;2022-11-20T11:57:00;100989.34;;;2.17;100.00
74163;BME280;62515;52.758;5.076;2022-11-20T11:59:33;100983.06;;;2.21;100.00
74163;BME280;62515;52.758;5.076;2022-11-20T12:02:19;100973.72;;;2.12;100.00
74163;BME280;62515;52.758;5.076;2022-11-20T12:05:16;100983.09;;;2.19;100.00
74163;BME280;62515;52.758;5.076;2022-11-20T12:07:48;100975.41;;;2.15;100.00
74163;BME280;62515;52.758;5.076;2022-11-20T12:10:21;100971.00;;;2.15;100.00
74163;BME280;62515;52.758;5.076;2022-11-20T12:13:26;100969.44;;;2.09;100.00
74163;BME280;62515;52.758;5.076;2022-11-20T12:15:58;100970.19;;;2.13;100.00
74163;BME280;62515;52.758;5.076;2022-11-20T12:18:27;100963.00;;;2.18;100.00
74163;BME280;62515;52.758;5.076;2022-11-20T12:21:03;100948.00;;;2.22;100.00
74163;BME280;62515;52.758;5.076;2022-11-20T12:23:42;100946.84;;;2.30;100.00
74163;BME280;62515;52.758;5.076;2022-11-20T12:26:30;100950.91;;;2.39;100.00
74163;BME280;62515;52.758;5.076;2022-11-20T12:29:08;100933.03;;;2.48;100.00
74163;BME280;62515;52.758;5.076;2022-11-20T12:31:41;100936.78;;;2.64;100.00
74163;BME280;62515;52.758;5.076;2022-11-20T12:34:24;100937.25;;;2.76;100.00
74163;BME280;62515;52.758;5.076;2022-11-20T12:37:06;100923.06;;;2.80;100.00
74163;BME280;62515;52.758;5.076;2022-11-20T12:39:41;100919.53;;;2.81;100.00
74163;BME280;62515;52.758;5.076;2022-11-20T12:48:11;100897.59;;;2.60;100.00
74163;BME280;62515;52.758;5.076;2022-11-20T12:50:51;100893.03;;;2.63;100.00
74163;BME280;62515;52.758;5.076;2022-11-20T12:53:46;100892.25;;;2.61;100.00
74163;BME280;62515;52.758;5.076;2022-11-20T12:56:26;100897.66;;;2.57;100.00
74163;BME280;62515;52.758;5.076;2022-11-20T12:59:06;100893.16;;;2.60;100.00
74163;BME280;62515;52.758;5.076;2022-11-20T13:01:40;100904.13;;;2.72;100.00
74163;BME280;62515;52.758;5.076;2022-11-20T13:04:18;100892.38;;;2.58;100.00
74163;BME280;62515;52.758;5.076;2022-11-20T13:06:54;100889.13;;;2.52;100.00
74163;BME280;62515;52.758;5.076;2022-11-20T13:09:22;100883.00;;;2.51;100.00
74163;BME280;62515;52.758;5.076;2022-11-20T13:12:05;100877.25;;;2.42;100.00